Time;durP1;ratioP1;P1;durP2;ratioP2;P2;SDS_P1;SDS_P2;PMS_P1;PMS_P2;Temp;Humidity;BMP_temperature;BMP_pressure;BME280_temperature;BME280_humidity;BME280_pressure;Samples;Min_cycle;Max_cycle;Signal;HPM_P1;HPM_P2
2023/05/21 00:01:31;;;;;;;5.25;1.92;;;;;;;10.48;97.71;102169.22;4961425;28;20190;-49
2023/05/21 00:03:58;;;;;;;4.38;1.73;;;;;;;10.43;97.62;102177.34;4963187;28;20202;-48
2023/05/21 00:06:24;;;;;;;5.32;1.83;;;;;;;10.44;97.72;102170.19;4967578;28;20598;-49
2023/05/21 00:08:50;;;;;;;3.13;1.60;;;;;;;10.46;97.80;102168.38;4967509;28;20194;-48
2023/05/21 00:11:15;;;;;;;3.72;1.80;;;;;;;10.45;97.95;102161.22;4964547;28;20190;-48
2023/05/21 00:13:41;;;;;;;4.80;1.80;;;;;;;10.41;98.15;102163.09;4964275;28;20234;-51
2023/05/21 00:16:07;;;;;;;4.63;1.90;;;;;;;10.34;98.38;102158.72;4966220;28;20197;-46
2023/05/21 00:18:33;;;;;;;3.00;2.25;;;;;;;10.30;98.87;102159.69;4965107;28;20186;-49
2023/05/21 00:20:59;;;;;;;5.10;1.95;;;;;;;10.33;99.35;102162.31;4962047;28;20182;-49
2023/05/21 00:23:25;;;;;;;3.92;1.90;;;;;;;10.27;99.73;102160.56;4969496;28;20228;-48
2023/05/21 00:25:52;;;;;;;4.65;1.60;;;;;;;10.29;100.00;102163.25;4967257;28;20195;-47
2023/05/21 00:28:17;;;;;;;3.47;2.00;;;;;;;10.36;100.00;102161.38;4967476;28;20245;-49
2023/05/21 00:30:43;;;;;;;4.00;2.35;;;;;;;10.32;100.00;102160.56;4967281;28;20179;-50
2023/05/21 00:33:09;;;;;;;6.05;2.33;;;;;;;10.30;100.00;102162.38;4962802;28;20551;-48
2023/05/21 00:35:35;;;;;;;5.40;1.95;;;;;;;10.22;100.00;102157.09;4968858;28;20186;-48
2023/05/21 00:38:00;;;;;;;7.18;2.13;;;;;;;10.20;100.00;102158.03;4966513;28;20189;-49
2023/05/21 00:40:26;;;;;;;3.53;2.13;;;;;;;10.28;100.00;102157.00;4962825;28;20518;-49
2023/05/21 00:42:56;;;;;;;6.18;2.00;;;;;;;10.31;100.00;102151.59;4969263;28;20193;-48
2023/05/21 00:45:24;;;;;;;5.80;1.98;;;;;;;10.22;100.00;102146.38;4963629;28;20202;-49
2023/05/21 00:47:53;;;;;;;3.88;1.98;;;;;;;10.29;100.00;102152.53;4964802;28;20226;-47
2023/05/21 00:50:21;;;;;;;3.95;2.42;;;;;;;10.25;100.00;102150.78;4948069;28;20294;-51
2023/05/21 00:52:47;;;;;;;5.53;2.50;;;;;;;10.16;100.00;102146.47;4952453;28;20182;-50
2023/05/21 00:55:13;;;;;;;6.38;2.30;;;;;;;10.02;100.00;102141.31;4969196;28;20273;-48
2023/05/21 00:57:40;;;;;;;6.03;2.22;;;;;;;10.06;100.00;102150.22;4965101;28;20269;-48
2023/05/21 01:00:07;;;;;;;4.53;2.00;;;;;;;10.05;100.00;102141.25;4961720;28;20190;-48
2023/05/21 01:02:35;;;;;;;4.88;2.00;;;;;;;10.05;100.00;102130.56;4968938;28;20197;-49
2023/05/21 01:05:04;;;;;;;4.07;2.17;;;;;;;9.94;100.00;102135.19;4952500;28;20210;-50
2023/05/21 01:07:34;;;;;;;4.20;2.35;;;;;;;9.83;100.00;102129.09;4961342;28;20229;-48
2023/05/21 01:10:02;;;;;;;4.72;2.55;;;;;;;9.84;100.00;102126.41;4966166;28;20244;-47
2023/05/21 01:12:30;;;;;;;5.18;2.35;;;;;;;9.86;100.00;102123.69;4967383;28;20195;-48
2023/05/21 01:14:58;;;;;;;9.00;2.35;;;;;;;9.71;100.00;102130.19;4949418;28;20202;-51
2023/05/21 01:17:25;;;;;;;4.82;2.63;;;;;;;9.81;100.00;102123.75;4951694;28;20201;-49
2023/05/21 01:19:53;;;;;;;2.85;2.03;;;;;;;9.88;100.00;102124.56;4943559;28;20203;-49
2023/05/21 01:22:20;;;;;;;3.85;2.15;;;;;;;9.85;100.00;102109.44;4952615;28;20197;-46
2023/05/21 01:24:48;;;;;;;7.28;2.38;;;;;;;9.80;100.00;102129.16;4949798;28;20210;-50
2023/05/21 01:27:14;;;;;;;6.93;2.58;;;;;;;9.69;100.00;102116.81;4961540;28;20182;-48
2023/05/21 01:29:40;;;;;;;5.70;2.60;;;;;;;9.76;100.00;102114.06;4952730;28;20703;-50
2023/05/21 01:32:13;;;;;;;5.57;2.50;;;;;;;9.73;100.00;102119.44;4963707;28;20183;-48
2023/05/21 01:34:52;;;;;;;4.35;2.17;;;;;;;9.83;100.00;102119.28;4958922;28;20210;-49
2023/05/21 01:37:28;;;;;;;5.13;2.55;;;;;;;9.87;100.00;102106.75;4963524;28;20174;-48
2023/05/21 01:40:02;;;;;;;6.68;2.47;;;;;;;9.75;100.00;102109.59;4948468;28;20574;-50
2023/05/21 01:42:30;;;;;;;5.63;2.15;;;;;;;9.82;100.00;102111.28;4959706;28;20180;-51
2023/05/21 01:44:59;;;;;;;5.07;2.40;;;;;;;9.78;100.00;102110.44;4961173;28;20571;-50
2023/05/21 01:47:26;;;;;;;5.22;2.10;;;;;;;9.77;100.00;102108.66;4963214;28;20198;-47
2023/05/21 01:49:51;;;;;;;5.78;1.88;;;;;;;9.71;100.00;102111.44;4968093;28;20214;-50
2023/05/21 01:52:17;;;;;;;5.40;2.40;;;;;;;9.68;100.00;102098.97;4951956;28;20201;-49
2023/05/21 01:54:43;;;;;;;4.88;2.55;;;;;;;9.69;100.00;102114.13;4965629;28;20208;-48
2023/05/21 01:57:08;;;;;;;9.20;2.38;;;;;;;9.75;100.00;102106.91;4950853;28;20205;-49
2023/05/21 01:59:35;;;;;;;5.07;2.90;;;;;;;9.70;100.00;102110.53;4951379;28;20189;-48
2023/05/21 02:02:01;;;;;;;5.82;2.15;;;;;;;9.73;100.00;102108.72;4962461;28;20204;-48
2023/05/21 02:04:26;;;;;;;8.88;2.40;;;;;;;9.74;100.00;102108.72;4965410;28;20210;-50
2023/05/21 02:06:53;;;;;;;2.40;1.52;;;;;;;9.82;100.00;102106.81;4963410;28;20206;-50
2023/05/21 02:09:19;;;;;;;5.20;2.20;;;;;;;9.84;100.00;102102.31;4951028;28;20209;-48
2023/05/21 02:11:45;;;;;;;2.88;1.80;;;;;;;9.82;100.00;102093.44;4964950;28;20551;-48
2023/05/21 02:14:12;;;;;;;6.05;2.05;;;;;;;9.82;100.00;102108.63;4935282;28;20198;-48
2023/05/21 02:16:39;;;;;;;4.85;2.13;;;;;;;9.86;100.00;102099.59;4966833;28;20197;-47
2023/05/21 02:19:05;;;;;;;3.35;2.05;;;;;;;9.85;100.00;102097.84;4950838;28;20213;-51
2023/05/21 02:21:31;;;;;;;4.68;3.05;;;;;;;9.84;100.00;102098.78;4952457;28;20178;-50
2023/05/21 02:23:56;;;;;;;4.05;2.13;;;;;;;9.86;100.00;102092.50;4951072;28;20210;-52
2023/05/21 02:26:22;;;;;;;3.67;1.92;;;;;;;9.82;100.00;102093.44;4950700;28;20194;-48
2023/05/21 02:28:48;;;;;;;5.03;1.80;;;;;;;9.86;100.00;102092.50;4951880;28;20201;-47
2023/05/21 02:31:13;;;;;;;4.22;1.80;;;;;;;9.87;100.00;102090.69;4962700;28;20240;-49
2023/05/21 02:33:40;;;;;;;4.35;2.45;;;;;;;9.78;100.00;102094.38;4961415;28;21178;-50
2023/05/21 02:36:11;;;;;;;3.33;2.00;;;;;;;9.83;100.00;102084.47;4967984;28;20192;-50
2023/05/21 02:38:39;;;;;;;4.68;2.13;;;;;;;9.78;100.00;102072.97;4952392;28;20285;-48
2023/05/21 02:41:06;;;;;;;6.03;2.35;;;;;;;9.72;100.00;102085.56;4964385;28;20189;-52
2023/05/21 02:43:31;;;;;;;6.93;2.17;;;;;;;9.60;100.00;102081.25;4966909;28;20312;-52
2023/05/21 02:45:57;;;;;;;5.28;2.35;;;;;;;9.54;100.00;102086.72;4965899;28;20173;-48
2023/05/21 02:48:24;;;;;;;7.05;2.88;;;;;;;9.59;100.00;102082.16;4952344;28;20191;-49
2023/05/21 02:50:49;;;;;;;3.78;2.30;;;;;;;9.59;100.00;102087.53;4952235;28;20656;-47
2023/05/21 02:53:15;;;;;;;4.53;2.65;;;;;;;9.56;100.00;102090.25;4945174;28;20329;-47
2023/05/21 02:55:41;;;;;;;6.22;2.50;;;;;;;9.56;100.00;102091.13;4950642;28;20213;-48
2023/05/21 02:58:06;;;;;;;6.15;2.50;;;;;;;9.57;100.00;102079.50;4946912;28;20267;-49
2023/05/21 03:00:32;;;;;;;4.47;3.30;;;;;;;9.57;100.00;102079.50;4959814;28;20185;-49
2023/05/21 03:02:58;;;;;;;5.53;2.80;;;;;;;9.60;100.00;102082.16;4953290;28;20186;-48
2023/05/21 03:05:24;;;;;;;6.47;3.25;;;;;;;9.62;100.00;102066.06;4954094;28;20197;-47
2023/05/21 03:07:50;;;;;;;4.93;2.92;;;;;;;9.58;100.00;102067.03;4942562;28;20251;-49
2023/05/21 03:10:15;;;;;;;7.43;3.28;;;;;;;9.59;100.00;102063.44;4970864;28;20237;-48
2023/05/21 03:12:41;;;;;;;8.18;3.10;;;;;;;9.58;100.00;102061.69;4966906;28;20205;-48
2023/05/21 03:15:07;;;;;;;10.52;3.60;;;;;;;9.58;100.00;102070.59;4954881;28;20249;-48
2023/05/21 03:17:32;;;;;;;6.65;3.70;;;;;;;9.69;100.00;102067.75;4968226;28;20186;-47
2023/05/21 03:19:58;;;;;;;6.95;3.40;;;;;;;9.70;100.00;102062.38;4943614;28;20186;-49
2023/05/21 03:22:23;;;;;;;7.70;3.78;;;;;;;9.75;100.00;102062.31;4969881;28;20236;-50
2023/05/21 03:24:49;;;;;;;7.20;3.60;;;;;;;9.80;100.00;102070.28;4948758;28;20226;-52
2023/05/21 03:27:16;;;;;;;10.50;4.10;;;;;;;9.78;100.00;102064.06;4952385;28;20277;-49
2023/05/21 03:29:43;;;;;;;8.50;3.65;;;;;;;9.80;100.00;102079.19;4968809;28;20256;-48
2023/05/21 03:32:09;;;;;;;6.22;3.63;;;;;;;9.84;100.00;102070.22;4947707;28;20185;-47
2023/05/21 03:34:35;;;;;;;9.00;4.30;;;;;;;9.90;100.00;102067.44;4968096;28;20211;-48
2023/05/21 03:37:01;;;;;;;6.22;3.95;;;;;;;9.83;100.00;102063.06;4952287;28;20221;-49
2023/05/21 03:39:28;;;;;;;10.85;4.20;;;;;;;9.92;100.00;102063.84;4938855;28;20203;-48
2023/05/21 03:41:55;;;;;;;6.75;3.85;;;;;;;9.96;100.00;102053.06;4969934;28;20195;-48
2023/05/21 03:44:36;;;;;;;11.57;4.15;;;;;;;10.00;100.00;102051.22;4954282;28;20227;-48
2023/05/21 03:47:21;;;;;;;7.38;3.97;;;;;;;10.08;100.00;102049.31;4940298;28;20219;-48
2023/05/21 03:49:48;;;;;;;9.23;5.07;;;;;;;10.04;100.00;102053.81;4954281;28;20265;-47
2023/05/21 03:52:13;;;;;;;10.10;4.38;;;;;;;10.04;100.00;102044.91;4936214;28;20190;-50
2023/05/21 03:54:39;;;;;;;16.65;5.07;;;;;;;10.07;100.00;102044.84;4953767;28;20197;-50
2023/05/21 03:57:07;;;;;;;10.25;4.32;;;;;;;10.03;100.00;102046.69;4953902;28;20194;-51
2023/05/21 03:59:33;;;;;;;10.77;4.53;;;;;;;10.08;100.00;102052.88;4953929;28;20185;-48
2023/05/21 04:01:59;;;;;;;11.57;4.40;;;;;;;10.17;100.00;102046.47;4969859;28;20599;-48
2023/05/21 04:04:24;;;;;;;9.63;4.28;;;;;;;10.19;100.00;102043.75;4949050;28;20657;-50
2023/05/21 04:06:50;;;;;;;11.93;4.72;;;;;;;10.26;100.00;102048.13;4963318;28;20170;-48
2023/05/21 04:09:16;;;;;;;10.75;4.57;;;;;;;10.29;100.00;102040.91;4968966;28;20296;-49
2023/05/21 04:11:41;;;;;;;7.75;4.15;;;;;;;10.27;100.00;102040.03;4954810;28;20194;-50
2023/05/21 04:14:06;;;;;;;9.85;4.60;;;;;;;10.20;100.00;102040.19;4964613;28;20337;-48
2023/05/21 04:16:34;;;;;;;9.32;4.40;;;;;;;10.24;100.00;102040.09;4951658;28;20182;-50
2023/05/21 04:18:59;;;;;;;9.20;4.15;;;;;;;10.33;100.00;102031.03;4938188;28;20180;-50
2023/05/21 04:21:26;;;;;;;9.65;4.68;;;;;;;10.40;100.00;102040.72;4958535;28;20182;-52
2023/05/21 04:23:52;;;;;;;12.63;5.78;;;;;;;10.35;100.00;102050.66;4951088;28;20207;-48
2023/05/21 04:26:25;;;;;;;10.15;4.90;;;;;;;10.31;100.00;102047.13;4952903;28;20187;-49
2023/05/21 04:28:52;;;;;;;10.18;4.90;;;;;;;10.38;100.00;102045.22;4951769;28;20632;-50
2023/05/21 04:31:19;;;;;;;12.32;5.05;;;;;;;10.40;100.00;102045.22;4957826;28;20278;-50
2023/05/21 04:33:46;;;;;;;11.20;4.80;;;;;;;10.39;100.00;102046.13;4961453;28;20277;-50
2023/05/21 04:36:12;;;;;;;12.52;4.35;;;;;;;10.48;100.00;102051.31;4967172;28;20205;-48
2023/05/21 04:38:40;;;;;;;11.00;5.05;;;;;;;10.54;100.00;102042.28;4952700;28;20203;-50
2023/05/21 04:41:06;;;;;;;7.45;4.97;;;;;;;10.59;100.00;102052.00;4954316;28;20190;-47
2023/05/21 04:43:31;;;;;;;13.48;4.80;;;;;;;10.68;100.00;102050.94;4927938;28;20206;-49
2023/05/21 04:45:58;;;;;;;14.30;5.57;;;;;;;10.79;100.00;102061.47;4952207;28;20186;-49
2023/05/21 04:48:25;;;;;;;12.75;5.72;;;;;;;10.73;100.00;102051.72;4952107;28;20174;-50
2023/05/21 04:50:52;;;;;;;11.93;4.93;;;;;;;10.79;100.00;102053.44;4951936;28;20175;-51
2023/05/21 04:53:18;;;;;;;8.75;4.75;;;;;;;10.89;100.00;102052.34;4951118;28;20179;-48
2023/05/21 04:55:45;;;;;;;9.50;4.60;;;;;;;10.92;100.00;102058.50;4959749;28;20269;-49
2023/05/21 04:58:12;;;;;;;10.68;5.00;;;;;;;11.02;100.00;102052.94;4949321;28;20182;-48
2023/05/21 05:00:37;;;;;;;9.48;5.30;;;;;;;11.01;100.00;102054.75;4948825;28;20200;-51
2023/05/21 05:03:04;;;;;;;14.57;5.47;;;;;;;11.00;100.00;102053.00;4952113;28;20272;-47
2023/05/21 05:05:30;;;;;;;11.18;4.97;;;;;;;11.17;100.00;102046.38;4950943;28;20741;-48
2023/05/21 05:07:57;;;;;;;12.43;4.97;;;;;;;11.24;100.00;102046.25;4948683;28;20595;-50
2023/05/21 05:10:22;;;;;;;13.50;5.10;;;;;;;11.22;100.00;102037.34;4952554;28;20202;-48
2023/05/21 05:12:48;;;;;;;10.65;5.40;;;;;;;11.33;100.00;102035.31;4947826;28;20731;-49
2023/05/21 05:15:14;;;;;;;9.05;5.43;;;;;;;11.50;100.00;102037.63;4952194;28;20208;-51
2023/05/21 05:17:40;;;;;;;12.95;5.20;;;;;;;11.42;100.00;102033.34;4951845;28;20229;-50
2023/05/21 05:20:09;;;;;;;11.95;5.00;;;;;;;11.43;100.00;102035.09;4964916;28;20206;-47
2023/05/21 05:22:34;;;;;;;10.75;5.13;;;;;;;11.57;100.00;102027.63;4948479;28;20178;-51
2023/05/21 05:25:00;;;;;;;10.32;5.35;;;;;;;11.69;100.00;102027.31;4956837;28;20211;-48
2023/05/21 05:27:26;;;;;;;11.70;5.45;;;;;;;11.73;100.00;102030.81;4950094;28;20178;-48
2023/05/21 05:29:51;;;;;;;8.23;4.55;;;;;;;12.00;100.00;102021.22;4952186;28;20214;-51
2023/05/21 05:32:17;;;;;;;9.18;5.10;;;;;;;12.01;100.00;102024.81;4966982;28;20559;-50
2023/05/21 05:34:44;;;;;;;13.75;4.88;;;;;;;11.93;100.00;102017.81;4952546;28;20561;-48
2023/05/21 05:37:10;;;;;;;12.02;4.85;;;;;;;12.01;100.00;102024.81;4968034;28;20174;-50
2023/05/21 05:39:35;;;;;;;12.20;5.38;;;;;;;11.89;100.00;102028.66;4951024;28;20521;-50
2023/05/21 05:42:02;;;;;;;10.57;4.30;;;;;;;11.96;100.00;102022.25;4947518;28;20266;-47
2023/05/21 05:44:27;;;;;;;8.85;5.18;;;;;;;12.04;100.00;102020.22;4966187;28;20225;-53
2023/05/21 05:46:53;;;;;;;10.32;5.03;;;;;;;11.97;100.00;102017.75;4951995;28;20171;-47
2023/05/21 05:49:18;;;;;;;8.93;4.72;;;;;;;12.10;100.00;102021.91;4952604;28;20213;-48
2023/05/21 05:51:44;;;;;;;7.90;4.47;;;;;;;12.13;100.00;102009.28;4963051;28;20185;-51
2023/05/21 05:54:10;;;;;;;9.98;5.00;;;;;;;12.35;100.00;102017.66;4951586;28;20790;-51
2023/05/21 05:56:35;;;;;;;7.78;4.10;;;;;;;12.43;100.00;102013.88;4948506;28;20293;-49
2023/05/21 05:59:03;;;;;;;10.13;4.43;;;;;;;12.37;100.00;102014.91;4957541;28;20170;-49
2023/05/21 06:01:30;;;;;;;11.02;4.75;;;;;;;12.38;100.00;102011.31;4961450;28;20197;-48
2023/05/21 06:03:56;;;;;;;8.93;4.90;;;;;;;12.50;100.00;102010.09;4966917;28;20202;-49
2023/05/21 06:06:22;;;;;;;8.65;4.53;;;;;;;12.52;100.00;102011.81;4972289;28;20337;-48
2023/05/21 06:08:47;;;;;;;21.92;6.10;;;;;;;12.50;100.00;102010.97;4954056;28;20213;-48
2023/05/21 06:11:15;;;;;;;6.97;4.40;;;;;;;12.55;100.00;102006.38;4963868;28;20253;-50
2023/05/21 06:13:41;;;;;;;12.27;4.57;;;;;;;12.50;100.00;101994.84;4957775;28;20296;-49
2023/05/21 06:16:08;;;;;;;8.70;4.72;;;;;;;12.54;100.00;102001.00;4969015;28;20210;-47
2023/05/21 06:18:34;;;;;;;11.20;5.30;;;;;;;12.48;100.00;101995.81;4963579;28;20637;-49
2023/05/21 06:21:00;;;;;;;13.32;5.07;;;;;;;12.56;100.00;102001.84;4961286;28;20240;-48
2023/05/21 06:23:26;;;;;;;14.90;5.10;;;;;;;12.63;100.00;102003.44;4967463;28;20237;-49
2023/05/21 06:25:52;;;;;;;10.65;4.45;;;;;;;12.60;100.00;102016.97;4966724;28;20253;-48
2023/05/21 06:28:18;;;;;;;8.18;4.72;;;;;;;12.62;100.00;102011.56;4961652;28;20186;-50
2023/05/21 06:30:44;;;;;;;9.07;4.78;;;;;;;12.65;100.00;102025.78;4975885;23;20229;-48
2023/05/21 06:33:10;;;;;;;10.63;4.85;;;;;;;12.73;100.00;102022.91;4961101;28;20246;-51
2023/05/21 06:35:35;;;;;;;10.57;4.45;;;;;;;12.88;100.00;102009.03;4958639;28;20190;-50
2023/05/21 06:38:02;;;;;;;8.48;4.45;;;;;;;12.66;100.00;102011.44;4965083;28;20178;-51
2023/05/21 06:40:27;;;;;;;12.15;5.18;;;;;;;12.73;100.00;102020.22;4970017;28;20256;-52
2023/05/21 06:42:55;;;;;;;12.80;4.82;;;;;;;12.90;100.00;102019.72;4964144;28;20185;-51
2023/05/21 06:45:56;;;;;;;10.18;4.90;;;;;;;12.81;100.00;102017.28;4895508;29;20196;-51
2023/05/21 06:48:34;;;;;;;8.30;4.70;;;;;;;13.05;100.00;102018.38;4949439;28;20202;-52
2023/05/21 06:51:00;;;;;;;10.55;5.32;;;;;;;12.99;100.00;102008.72;4962452;28;20181;-51
2023/05/21 06:53:26;;;;;;;9.98;4.88;;;;;;;12.89;100.00;102010.78;4956825;28;20664;-49
2023/05/21 06:55:52;;;;;;;13.70;4.70;;;;;;;13.01;100.00;102019.41;4965367;28;20190;-51
2023/05/21 06:58:22;;;;;;;10.52;5.10;;;;;;;12.93;100.00;102023.22;4955235;28;20224;-50
2023/05/21 07:00:47;;;;;;;9.15;4.35;;;;;;;12.90;100.00;102019.72;4961857;28;20178;-52
2023/05/21 07:03:13;;;;;;;8.35;4.63;;;;;;;13.03;100.00;102012.16;4948587;28;20265;-50
2023/05/21 07:05:39;;;;;;;8.77;4.38;;;;;;;12.94;100.00;102014.22;4947521;28;20206;-51
2023/05/21 07:08:05;;;;;;;8.43;4.68;;;;;;;12.99;100.00;102016.78;4964613;28;20217;-49
2023/05/21 07:10:30;;;;;;;10.23;5.22;;;;;;;13.14;100.00;102015.41;4970060;28;20211;-50
2023/05/21 07:12:56;;;;;;;14.10;5.57;;;;;;;13.11;100.00;102026.28;4958308;28;20182;-50
2023/05/21 07:15:22;;;;;;;7.95;4.70;;;;;;;13.10;100.00;102020.03;4965225;28;20237;-50
2023/05/21 07:17:47;;;;;;;9.52;4.25;;;;;;;13.12;100.00;102017.31;4966285;28;20703;-50
2023/05/21 07:20:13;;;;;;;7.75;4.38;;;;;;;13.26;100.00;102008.81;4960568;28;20182;-49
2023/05/21 07:22:42;;;;;;;6.45;4.13;;;;;;;13.05;100.00;102010.31;4958915;28;20664;-49
2023/05/21 07:25:10;;;;;;;11.65;4.63;;;;;;;13.37;100.00;102015.66;4965923;28;20808;-51
2023/05/21 07:27:35;;;;;;;10.27;4.95;;;;;;;13.34;100.00;102007.69;4968899;28;20273;-49
2023/05/21 07:30:02;;;;;;;11.75;5.03;;;;;;;13.18;100.00;102007.25;4964619;28;20217;-51
2023/05/21 07:32:28;;;;;;;8.48;4.57;;;;;;;13.38;100.00;102003.97;4967876;28;20270;-49
2023/05/21 07:34:54;;;;;;;9.50;4.55;;;;;;;13.37;100.00;102004.00;4967818;28;20768;-50
2023/05/21 07:37:24;;;;;;;9.60;4.75;;;;;;;13.62;100.00;102011.28;4969074;28;20187;-50
2023/05/21 07:39:49;;;;;;;11.15;5.38;;;;;;;13.75;100.00;102002.78;4968268;28;20183;-49
2023/05/21 07:42:15;;;;;;;9.63;4.72;;;;;;;13.87;100.00;101998.81;4962467;28;20193;-51
2023/05/21 07:44:41;;;;;;;11.70;5.03;;;;;;;13.81;100.00;101994.47;4960446;28;20190;-49
2023/05/21 07:47:06;;;;;;;7.75;4.32;;;;;;;14.15;100.00;101996.06;4959298;28;20190;-50
2023/05/21 07:49:33;;;;;;;9.25;5.13;;;;;;;13.90;100.00;101989.72;4962574;28;20201;-52
2023/05/21 07:51:58;;;;;;;13.77;4.88;;;;;;;13.91;100.00;101994.19;4965192;28;20660;-48
2023/05/21 07:54:25;;;;;;;8.82;4.40;;;;;;;14.28;100.00;101988.44;4969593;28;20205;-50
2023/05/21 07:56:51;;;;;;;8.68;4.97;;;;;;;14.54;100.00;101997.38;4970594;28;20256;-49
2023/05/21 07:59:39;;;;;;;8.55;5.25;;;;;;;14.53;100.00;101998.34;4958266;28;20193;-50
2023/05/21 08:02:05;;;;;;;9.95;5.00;;;;;;;14.61;100.00;101988.19;4972225;28;20217;-49
2023/05/21 08:04:31;;;;;;;8.77;5.18;;;;;;;14.99;100.00;101991.25;4968210;28;20207;-48
2023/05/21 08:06:56;;;;;;;10.02;5.70;;;;;;;15.18;100.00;101981.50;4958534;28;20644;-47
2023/05/21 08:09:22;;;;;;;9.25;4.85;;;;;;;15.59;100.00;101975.38;4962131;28;20202;-48
2023/05/21 08:11:47;;;;;;;9.35;5.30;;;;;;;15.49;99.26;101979.41;4965953;28;20673;-50
2023/05/21 08:14:13;;;;;;;8.98;5.22;;;;;;;14.94;98.43;101985.16;4956948;28;20251;-49
2023/05/21 08:16:38;;;;;;;9.68;4.75;;;;;;;15.27;98.55;101976.69;4965312;28;20249;-51
2023/05/21 08:19:04;;;;;;;10.25;5.35;;;;;;;15.16;98.39;101980.69;4959787;28;20253;-52
2023/05/21 08:21:31;;;;;;;8.45;5.22;;;;;;;15.30;97.59;101979.25;4976157;28;20174;-49
2023/05/21 08:23:59;;;;;;;12.80;5.65;;;;;;;15.58;97.16;101988.03;4964489;28;20684;-49
2023/05/21 08:26:25;;;;;;;8.15;4.50;;;;;;;16.14;95.84;101978.53;4957176;28;20178;-50
2023/05/21 08:28:50;;;;;;;8.40;4.57;;;;;;;16.05;94.46;101979.78;4959458;28;20213;-51
2023/05/21 08:31:20;;;;;;;10.40;5.43;;;;;;;15.99;93.91;101976.47;4953414;28;20194;-51
2023/05/21 08:33:53;;;;;;;8.95;4.80;;;;;;;15.98;93.49;101981.00;4945948;28;20214;-52
2023/05/21 08:36:25;;;;;;;9.98;5.30;;;;;;;16.41;93.39;101984.53;4944988;28;20179;-49
2023/05/21 08:38:56;;;;;;;9.38;5.13;;;;;;;15.96;92.88;101985.59;4945961;28;20266;-47
2023/05/21 08:41:30;;;;;;;9.85;5.18;;;;;;;15.80;92.45;101979.06;4946467;28;20188;-49
2023/05/21 08:43:59;;;;;;;9.18;5.25;;;;;;;15.54;92.92;101980.97;4948972;28;20273;-47
2023/05/21 08:46:31;;;;;;;10.80;5.38;;;;;;;15.51;93.81;101993.75;4939348;28;20186;-48
2023/05/21 08:48:57;;;;;;;10.45;4.90;;;;;;;15.97;93.59;101984.63;4960240;28;20238;-50
2023/05/21 08:51:25;;;;;;;7.38;4.78;;;;;;;16.24;93.15;101982.56;4952252;28;20193;-49
2023/05/21 08:53:52;;;;;;;9.35;4.80;;;;;;;15.85;92.80;101974.34;4927090;28;20305;-50
2023/05/21 08:56:20;;;;;;;9.40;4.95;;;;;;;16.15;92.98;101980.25;4963455;28;20644;-48
2023/05/21 08:58:52;;;;;;;8.93;5.60;;;;;;;16.05;91.87;101971.69;4944152;28;20281;-48
2023/05/21 09:01:21;;;;;;;9.52;5.28;;;;;;;16.32;92.40;101970.56;4929410;28;20569;-48
2023/05/21 09:03:56;;;;;;;10.07;4.90;;;;;;;16.13;91.89;101968.63;4948954;28;20222;-49
2023/05/21 09:06:24;;;;;;;10.18;5.93;;;;;;;15.81;92.27;101962.78;4949134;28;20237;-49
2023/05/21 09:08:59;;;;;;;11.45;5.82;;;;;;;15.95;91.93;101973.00;4945549;28;20676;-48
2023/05/21 09:11:30;;;;;;;9.48;5.63;;;;;;;16.13;91.61;101965.94;4950203;28;20187;-48
2023/05/21 09:13:58;;;;;;;9.23;5.18;;;;;;;16.18;91.83;101969.34;4955446;28;20300;-50
2023/05/21 09:16:47;;;;;;;8.90;5.70;;;;;;;16.26;91.71;101964.44;4949527;28;20216;-47
2023/05/21 09:19:13;;;;;;;9.70;5.05;;;;;;;16.28;91.83;101965.25;4941011;28;20603;-49
2023/05/21 09:21:39;;;;;;;8.30;5.70;;;;;;;16.37;91.38;101966.69;4942610;28;20193;-50
2023/05/21 09:24:21;;;;;;;8.63;5.35;;;;;;;16.47;90.76;101968.03;4949201;28;20723;-48
2023/05/21 09:26:47;;;;;;;8.90;5.10;;;;;;;15.99;91.54;101963.84;4939772;28;20626;-48
2023/05/21 09:29:13;;;;;;;9.52;5.47;;;;;;;16.24;91.80;101965.47;4945428;28;20288;-49
2023/05/21 09:31:46;;;;;;;7.53;5.25;;;;;;;16.54;91.70;101973.19;4963917;28;20334;-48
2023/05/21 09:34:15;;;;;;;10.27;5.75;;;;;;;16.58;90.88;101980.22;4956524;28;20198;-47
2023/05/21 09:36:42;;;;;;;8.65;5.03;;;;;;;16.41;90.06;101972.84;4964059;28;20249;-49
2023/05/21 09:39:10;;;;;;;8.27;5.50;;;;;;;16.25;90.30;101968.13;4962584;28;20174;-50
2023/05/21 09:41:36;;;;;;;9.68;5.75;;;;;;;15.98;90.47;101972.00;4958459;28;20652;-48
2023/05/21 09:44:03;;;;;;;8.40;5.53;;;;;;;16.24;90.80;101965.47;4964321;28;20202;-49
2023/05/21 09:46:38;;;;;;;7.38;5.55;;;;;;;15.96;90.56;101960.38;4965043;28;20613;-49
2023/05/21 09:49:03;;;;;;;10.95;5.95;;;;;;;15.87;91.23;101958.94;4958731;28;20217;-49
2023/05/21 09:51:30;;;;;;;8.30;5.20;;;;;;;16.15;91.81;101963.16;4960168;28;20510;-48
2023/05/21 09:53:56;;;;;;;9.00;6.03;;;;;;;15.91;91.57;101960.56;4959158;28;20214;-49
2023/05/21 09:56:24;;;;;;;12.35;6.28;;;;;;;16.18;91.64;101957.63;4960585;28;20186;-48
2023/05/21 09:58:59;;;;;;;10.43;5.25;;;;;;;16.50;91.38;101963.44;4959112;28;20170;-50
2023/05/21 10:01:25;;;;;;;10.48;5.63;;;;;;;16.24;90.37;101954.66;4966118;28;20282;-48
2023/05/21 10:03:55;;;;;;;8.75;5.55;;;;;;;16.36;90.67;101962.22;4958297;28;20253;-49
2023/05/21 10:06:25;;;;;;;7.97;5.03;;;;;;;16.58;91.06;101964.84;4968245;28;20178;-50
2023/05/21 10:08:54;;;;;;;7.18;5.55;;;;;;;16.70;90.11;101960.69;4962581;28;20206;-49
2023/05/21 10:11:25;;;;;;;9.77;5.70;;;;;;;16.43;89.46;101954.72;4956044;28;20175;-48
2023/05/21 10:14:02;;;;;;;7.13;5.22;;;;;;;16.71;89.70;101967.00;4955396;28;20246;-48
2023/05/21 10:16:31;;;;;;;11.07;6.57;;;;;;;16.73;88.70;101957.88;4961164;28;20190;-48
2023/05/21 10:18:58;;;;;;;10.65;4.93;;;;;;;17.10;88.28;101948.06;4956984;28;20230;-48
2023/05/21 10:21:25;;;;;;;9.82;5.03;;;;;;;17.18;87.39;101937.72;4959118;28;20210;-50
2023/05/21 10:23:52;;;;;;;11.55;5.78;;;;;;;17.10;86.41;101942.63;4959287;28;20275;-50
2023/05/21 10:26:20;;;;;;;7.88;5.15;;;;;;;17.06;86.75;101933.78;4964430;28;20186;-49
2023/05/21 10:28:46;;;;;;;8.82;4.65;;;;;;;17.67;86.51;101937.16;4961634;28;20652;-48
2023/05/21 10:31:12;;;;;;;7.20;6.15;;;;;;;17.70;85.41;101934.25;4955127;28;20198;-49
2023/05/21 10:33:38;;;;;;;9.57;5.65;;;;;;;17.57;84.47;101923.16;4938574;28;20210;-48
2023/05/21 10:36:04;;;;;;;14.95;6.40;;;;;;;17.28;83.91;101928.19;4958683;28;20182;-49
2023/05/21 10:38:32;;;;;;;7.68;4.90;;;;;;;17.30;84.59;101926.28;4951436;28;20565;-48
2023/05/21 10:40:58;;;;;;;9.60;6.72;;;;;;;17.37;85.06;101909.75;4956886;28;20221;-47
2023/05/21 10:43:42;;;;;;;11.13;5.40;;;;;;;18.04;84.31;101905.47;4957156;28;20218;-47
2023/05/21 10:46:28;;;;;;;8.18;5.93;;;;;;;17.75;83.57;101902.38;4950514;28;20254;-49
2023/05/21 10:49:24;;;;;;;7.78;5.20;;;;;;;17.74;83.89;101908.75;4961631;28;20522;-48
2023/05/21 10:52:16;;;;;;;10.23;5.40;;;;;;;17.83;83.63;101908.31;4958336;28;20670;-50
2023/05/21 10:55:23;;;;;;;7.53;5.68;;;;;;;17.70;83.18;101905.31;4960308;28;20281;-49
2023/05/21 10:58:07;;;;;;;12.90;5.78;;;;;;;17.73;84.20;101906.13;4928895;28;20202;-50
2023/05/21 11:00:33;;;;;;;8.05;5.30;;;;;;;17.92;84.24;101907.84;4954659;28;20217;-48
2023/05/21 11:03:00;;;;;;;9.63;5.72;;;;;;;17.79;83.78;101905.81;4957655;28;20206;-48
2023/05/21 11:05:40;;;;;;;11.13;5.45;;;;;;;17.81;83.19;101901.19;4956099;28;20199;-51
2023/05/21 11:08:20;;;;;;;7.55;5.45;;;;;;;17.75;83.69;101901.50;4942485;28;20232;-48
2023/05/21 11:10:51;;;;;;;8.43;5.57;;;;;;;17.87;83.39;101907.22;4958835;28;20658;-49
2023/05/21 11:13:20;;;;;;;7.85;5.32;;;;;;;18.02;83.16;101897.41;4960736;28;20178;-48
2023/05/21 11:15:58;;;;;;;8.73;5.30;;;;;;;17.88;82.90;101910.78;4948833;28;20206;-48
2023/05/21 11:18:32;;;;;;;13.07;6.03;;;;;;;18.03;82.12;101896.44;4957349;28;20186;-50
2023/05/21 11:21:10;;;;;;;8.25;5.82;;;;;;;17.60;81.89;101889.59;4955061;28;20579;-48
2023/05/21 11:23:58;;;;;;;11.40;6.35;;;;;;;17.39;83.44;101906.00;4960666;28;20212;-48